FGD668 CYXX-KEAT
Flight info
| Callsign | FGD668 |
|---|---|
| Flight time | 1h 13m |
| Altitude | 10000 |
| Route | GABVO5 GABVO DCT EAT |
| Aircraft | AT8T/L-SFG/C |
Departure
| Time | 2026-04-27 02:48 |
|---|---|
| Airport | Abbotsford International Airport (CYXX) |
Arrival
| Time | 2026-04-27 04:01 |
|---|---|
| Airport | Pangborn Memorial Airport (KEAT) |
| Time | Latitude | Longitude | Altitude | Speed | Heading |
|---|---|---|---|---|---|
| 2026-04-27 02:13 | 49.02717 | -122.37543 | 186 ft | 0 kts | 204° |
| 2026-04-27 02:35 | 49.02714 | -122.37546 | 186 ft | 1 kts | 145° |
| 2026-04-27 02:35 | 49.02741 | -122.37517 | 186 ft | 6 kts | 47° |
| 2026-04-27 02:35 | 49.02742 | -122.37469 | 187 ft | 5 kts | 113° |
| 2026-04-27 02:35 | 49.02739 | -122.37457 | 187 ft | 0 kts | 112° |
| 2026-04-27 02:41 | 49.02732 | -122.37433 | 195 ft | 6 kts | 98° |
| 2026-04-27 02:41 | 49.02761 | -122.37391 | 192 ft | 7 kts | 26° |
| 2026-04-27 02:41 | 49.02814 | -122.37352 | 195 ft | 9 kts | 26° |
| 2026-04-27 02:41 | 49.02915 | -122.37278 | 190 ft | 18 kts | 24° |
| 2026-04-27 02:42 | 49.03028 | -122.37201 | 199 ft | 17 kts | 25° |
| 2026-04-27 02:42 | 49.03115 | -122.37142 | 194 ft | 6 kts | 27° |
| 2026-04-27 02:42 | 49.03116 | -122.37140 | 194 ft | 0 kts | 28° |
| 2026-04-27 02:46 | 49.03162 | -122.37078 | 198 ft | 13 kts | 72° |
| 2026-04-27 02:46 | 49.03139 | -122.36959 | 194 ft | 13 kts | 168° |
| 2026-04-27 02:46 | 49.03067 | -122.36982 | 197 ft | 0 kts | 204° |
| 2026-04-27 02:47 | 49.03064 | -122.36984 | 198 ft | 1 kts | 204° |
| 2026-04-27 02:47 | 49.03062 | -122.36986 | 197 ft | 0 kts | 205° |
| 2026-04-27 02:47 | 49.03014 | -122.37021 | 191 ft | 0 kts | 207° |
| 2026-04-27 02:48 | 49.02891 | -122.37112 | 201 ft | 63 kts | 204° |
| 2026-04-27 02:48 | 49.02368 | -122.37385 | 424 ft | 92 kts | 198° |
| 2026-04-27 02:48 | 49.01773 | -122.37700 | 633 ft | 92 kts | 202° |
| 2026-04-27 02:48 | 49.01083 | -122.37975 | 919 ft | 113 kts | 198° |
| 2026-04-27 02:49 | 49.00304 | -122.38230 | 1170 ft | 110 kts | 193° |
| 2026-04-27 02:49 | 48.99600 | -122.38431 | 1424 ft | 98 kts | 187° |
| 2026-04-27 02:49 | 48.98936 | -122.38201 | 1703 ft | 98 kts | 160° |
| 2026-04-27 02:49 | 48.98295 | -122.37792 | 2023 ft | 101 kts | 156° |
| 2026-04-27 02:50 | 48.97658 | -122.37376 | 2387 ft | 102 kts | 156° |
| 2026-04-27 02:50 | 48.96992 | -122.36968 | 2740 ft | 100 kts | 164° |
| 2026-04-27 02:50 | 48.96260 | -122.36706 | 3022 ft | 116 kts | 165° |
| 2026-04-27 02:50 | 48.95482 | -122.36313 | 3370 ft | 120 kts | 161° |
| 2026-04-27 02:51 | 48.94667 | -122.35897 | 3525 ft | 127 kts | 166° |
| 2026-04-27 02:51 | 48.93799 | -122.35486 | 3565 ft | 133 kts | 162° |
| 2026-04-27 02:51 | 48.92908 | -122.35079 | 3551 ft | 134 kts | 167° |
| 2026-04-27 02:51 | 48.92069 | -122.34689 | 3650 ft | 118 kts | 165° |
| 2026-04-27 02:52 | 48.91261 | -122.34303 | 3739 ft | 127 kts | 163° |
| 2026-04-27 02:52 | 48.90363 | -122.33952 | 3788 ft | 137 kts | 166° |
| 2026-04-27 02:52 | 48.89429 | -122.33682 | 3911 ft | 137 kts | 174° |
| 2026-04-27 02:52 | 48.88478 | -122.33543 | 4004 ft | 139 kts | 175° |
| 2026-04-27 02:53 | 48.87516 | -122.33332 | 4007 ft | 141 kts | 169° |
| 2026-04-27 02:53 | 48.86632 | -122.32772 | 4017 ft | 135 kts | 141° |
| 2026-04-27 02:53 | 48.85963 | -122.31811 | 4034 ft | 137 kts | 131° |
| 2026-04-27 02:53 | 48.85383 | -122.30649 | 4084 ft | 132 kts | 121° |
| 2026-04-27 02:54 | 48.84966 | -122.29422 | 4123 ft | 130 kts | 113° |
| 2026-04-27 02:54 | 48.84616 | -122.28142 | 4122 ft | 136 kts | 112° |
| 2026-04-27 02:54 | 48.84235 | -122.26809 | 4152 ft | 140 kts | 117° |
| 2026-04-27 02:54 | 48.83639 | -122.25541 | 4088 ft | 155 kts | 128° |
| 2026-04-27 02:55 | 48.82969 | -122.24158 | 3820 ft | 167 kts | 124° |
| 2026-04-27 02:55 | 48.82338 | -122.22746 | 3571 ft | 158 kts | 125° |
| 2026-04-27 02:55 | 48.81615 | -122.21541 | 3469 ft | 145 kts | 140° |
| 2026-04-27 02:55 | 48.80866 | -122.20823 | 3204 ft | 117 kts | 159° |
| 2026-04-27 02:56 | 48.80028 | -122.20323 | 3259 ft | 134 kts | 163° |
| 2026-04-27 02:56 | 48.79093 | -122.20057 | 3412 ft | 142 kts | 171° |
| 2026-04-27 02:56 | 48.78101 | -122.19768 | 3500 ft | 148 kts | 171° |
| 2026-04-27 02:56 | 48.77048 | -122.19482 | 3412 ft | 158 kts | 173° |
| 2026-04-27 02:57 | 48.76042 | -122.19250 | 3452 ft | 148 kts | 168° |
| 2026-04-27 02:57 | 48.75017 | -122.18924 | 3450 ft | 142 kts | 168° |
| 2026-04-27 02:57 | 48.74020 | -122.18659 | 3436 ft | 149 kts | 170° |
| 2026-04-27 02:57 | 48.73029 | -122.18363 | 3460 ft | 142 kts | 171° |
| 2026-04-27 02:58 | 48.72062 | -122.18038 | 3420 ft | 141 kts | 168° |
| 2026-04-27 02:58 | 48.71136 | -122.17645 | 3512 ft | 128 kts | 167° |
| 2026-04-27 02:58 | 48.70411 | -122.17229 | 3260 ft | 116 kts | 150° |
| 2026-04-27 02:58 | 48.69733 | -122.16544 | 3193 ft | 117 kts | 151° |
| 2026-04-27 02:59 | 48.69022 | -122.15787 | 3214 ft | 137 kts | 144° |
| 2026-04-27 02:59 | 48.68201 | -122.14892 | 3216 ft | 151 kts | 147° |
| 2026-04-27 02:59 | 48.67336 | -122.13974 | 3294 ft | 153 kts | 145° |
| 2026-04-27 02:59 | 48.66470 | -122.12994 | 3270 ft | 158 kts | 146° |
| 2026-04-27 03:00 | 48.65636 | -122.12106 | 3274 ft | 137 kts | 147° |
| 2026-04-27 03:00 | 48.64837 | -122.11229 | 3350 ft | 147 kts | 146° |
| 2026-04-27 03:00 | 48.64000 | -122.10345 | 3413 ft | 144 kts | 150° |
| 2026-04-27 03:00 | 48.63133 | -122.09631 | 3422 ft | 130 kts | 157° |
| 2026-04-27 03:01 | 48.62324 | -122.08943 | 3408 ft | 139 kts | 149° |
| 2026-04-27 03:01 | 48.61480 | -122.08143 | 3463 ft | 148 kts | 149° |
| 2026-04-27 03:01 | 48.60636 | -122.07295 | 3485 ft | 143 kts | 146° |
| 2026-04-27 03:01 | 48.59825 | -122.06436 | 3458 ft | 138 kts | 153° |
| 2026-04-27 03:02 | 48.59019 | -122.05723 | 3465 ft | 136 kts | 149° |
| 2026-04-27 03:02 | 48.58155 | -122.04999 | 3458 ft | 144 kts | 155° |
| 2026-04-27 03:02 | 48.57254 | -122.04382 | 3481 ft | 144 kts | 159° |
| 2026-04-27 03:02 | 48.56379 | -122.03712 | 3498 ft | 134 kts | 148° |
| 2026-04-27 03:03 | 48.55735 | -122.02612 | 3455 ft | 148 kts | 119° |
| 2026-04-27 03:03 | 48.55247 | -121.99551 | 3311 ft | 153 kts | 101° |
| 2026-04-27 03:03 | 48.55041 | -121.98054 | 3210 ft | 139 kts | 102° |
| 2026-04-27 03:04 | 48.54800 | -121.96545 | 3177 ft | 153 kts | 101° |
| 2026-04-27 03:04 | 48.54549 | -121.94997 | 3134 ft | 154 kts | 104° |
| 2026-04-27 03:04 | 48.54306 | -121.93451 | 3061 ft | 149 kts | 102° |
| 2026-04-27 03:04 | 48.54057 | -121.91985 | 3033 ft | 143 kts | 105° |
| 2026-04-27 03:05 | 48.53772 | -121.90478 | 3003 ft | 153 kts | 105° |
| 2026-04-27 03:05 | 48.53509 | -121.88944 | 2920 ft | 149 kts | 99° |
| 2026-04-27 03:05 | 48.53288 | -121.87428 | 2944 ft | 143 kts | 104° |
| 2026-04-27 03:05 | 48.53114 | -121.85932 | 2867 ft | 147 kts | 102° |
| 2026-04-27 03:06 | 48.52930 | -121.84407 | 2870 ft | 144 kts | 104° |
| 2026-04-27 03:06 | 48.52758 | -121.82936 | 2817 ft | 145 kts | 100° |
| 2026-04-27 03:06 | 48.52590 | -121.81467 | 2876 ft | 138 kts | 101° |
| 2026-04-27 03:06 | 48.52429 | -121.80081 | 2993 ft | 132 kts | 97° |
| 2026-04-27 03:07 | 48.52256 | -121.78731 | 3032 ft | 130 kts | 109° |
| 2026-04-27 03:07 | 48.52079 | -121.77346 | 3059 ft | 137 kts | 95° |
| 2026-04-27 03:07 | 48.51893 | -121.75957 | 3252 ft | 139 kts | 104° |
| 2026-04-27 03:07 | 48.51666 | -121.74566 | 3384 ft | 136 kts | 105° |
| 2026-04-27 03:08 | 48.51401 | -121.73171 | 3541 ft | 138 kts | 106° |
| 2026-04-27 03:08 | 48.51179 | -121.71808 | 3632 ft | 132 kts | 108° |
| 2026-04-27 03:08 | 48.50898 | -121.70425 | 3686 ft | 138 kts | 104° |
| 2026-04-27 03:08 | 48.50713 | -121.69039 | 3787 ft | 136 kts | 100° |
| 2026-04-27 03:09 | 48.50507 | -121.67607 | 3849 ft | 140 kts | 105° |
| 2026-04-27 03:09 | 48.50280 | -121.66194 | 3953 ft | 138 kts | 105° |
| 2026-04-27 03:09 | 48.50062 | -121.64789 | 4039 ft | 136 kts | 105° |
| 2026-04-27 03:09 | 48.49826 | -121.63404 | 4103 ft | 138 kts | 107° |
| 2026-04-27 03:10 | 48.49543 | -121.62045 | 4157 ft | 136 kts | 108° |
| 2026-04-27 03:10 | 48.49248 | -121.60734 | 4196 ft | 135 kts | 107° |
| 2026-04-27 03:10 | 48.49040 | -121.59334 | 4197 ft | 142 kts | 102° |
| 2026-04-27 03:10 | 48.48945 | -121.57807 | 4026 ft | 151 kts | 88° |
| 2026-04-27 03:11 | 48.49005 | -121.56186 | 3765 ft | 158 kts | 86° |
| 2026-04-27 03:11 | 48.49204 | -121.54591 | 3416 ft | 156 kts | 78° |
| 2026-04-27 03:11 | 48.49464 | -121.52960 | 2934 ft | 164 kts | 74° |
| 2026-04-27 03:11 | 48.49825 | -121.51328 | 2491 ft | 166 kts | 70° |
| 2026-04-27 03:12 | 48.50203 | -121.49714 | 2068 ft | 163 kts | 68° |
| 2026-04-27 03:12 | 48.50831 | -121.48351 | 1691 ft | 159 kts | 50° |
| 2026-04-27 03:12 | 48.51558 | -121.47146 | 1633 ft | 154 kts | 54° |
| 2026-04-27 03:12 | 48.52135 | -121.45883 | 1573 ft | 121 kts | 63° |
| 2026-04-27 03:13 | 48.52447 | -121.44722 | 1568 ft | 128 kts | 69° |
| 2026-04-27 03:13 | 48.52762 | -121.43386 | 1641 ft | 147 kts | 79° |
| 2026-04-27 03:13 | 48.52774 | -121.41738 | 1052 ft | 164 kts | 97° |
| 2026-04-27 03:13 | 48.52719 | -121.40061 | 704 ft | 157 kts | 98° |
| 2026-04-27 03:14 | 48.52280 | -121.38557 | 651 ft | 158 kts | 117° |
| 2026-04-27 03:14 | 48.51848 | -121.37099 | 649 ft | 143 kts | 132° |
| 2026-04-27 03:14 | 48.51761 | -121.35652 | 730 ft | 146 kts | 71° |
| 2026-04-27 03:14 | 48.52404 | -121.34533 | 880 ft | 131 kts | 42° |
| 2026-04-27 03:15 | 48.53017 | -121.33555 | 1170 ft | 128 kts | 65° |
| 2026-04-27 03:15 | 48.52977 | -121.32221 | 1265 ft | 109 kts | 92° |
| 2026-04-27 03:15 | 48.53132 | -121.31187 | 1235 ft | 103 kts | 64° |
| 2026-04-27 03:15 | 48.53476 | -121.30187 | 1457 ft | 118 kts | 73° |
| 2026-04-27 03:16 | 48.53528 | -121.28824 | 1595 ft | 139 kts | 104° |
| 2026-04-27 03:16 | 48.53041 | -121.27535 | 1665 ft | 149 kts | 132° |
| 2026-04-27 03:16 | 48.52199 | -121.26659 | 1603 ft | 144 kts | 149° |
| 2026-04-27 03:16 | 48.51381 | -121.25842 | 1567 ft | 140 kts | 151° |
| 2026-04-27 03:17 | 48.50471 | -121.25303 | 1623 ft | 134 kts | 165° |
| 2026-04-27 03:17 | 48.49619 | -121.24720 | 1664 ft | 141 kts | 153° |
| 2026-04-27 03:17 | 48.48757 | -121.23992 | 1811 ft | 139 kts | 154° |
| 2026-04-27 03:17 | 48.47979 | -121.23208 | 1871 ft | 134 kts | 139° |
| 2026-04-27 03:18 | 48.47276 | -121.22300 | 1921 ft | 134 kts | 143° |
| 2026-04-27 03:18 | 48.46605 | -121.21322 | 1978 ft | 134 kts | 121° |
| 2026-04-27 03:18 | 48.46367 | -121.19953 | 1968 ft | 134 kts | 107° |
| 2026-04-27 03:18 | 48.46265 | -121.18530 | 2140 ft | 138 kts | 84° |
| 2026-04-27 03:19 | 48.46391 | -121.17140 | 2210 ft | 132 kts | 75° |
| 2026-04-27 03:19 | 48.47018 | -121.16281 | 2565 ft | 120 kts | 19° |
| 2026-04-27 03:19 | 48.47724 | -121.15696 | 2840 ft | 121 kts | 25° |
| 2026-04-27 03:19 | 48.48460 | -121.15004 | 3081 ft | 128 kts | 38° |
| 2026-04-27 03:20 | 48.48843 | -121.14393 | 3228 ft | 121 kts | 55° |
| 2026-04-27 03:20 | 48.49474 | -121.12976 | 3401 ft | 118 kts | 65° |
| 2026-04-27 03:20 | 48.49571 | -121.11756 | 3767 ft | 122 kts | 93° |
| 2026-04-27 03:20 | 48.49493 | -121.10911 | 4003 ft | 124 kts | 104° |
| 2026-04-27 03:21 | 48.49219 | -121.09408 | 4537 ft | 110 kts | 100° |
| 2026-04-27 03:21 | 48.49122 | -121.08193 | 4927 ft | 118 kts | 124° |
| 2026-04-27 03:21 | 48.48444 | -121.07532 | 5277 ft | 113 kts | 157° |
| 2026-04-27 03:21 | 48.47749 | -121.06908 | 5564 ft | 110 kts | 155° |
| 2026-04-27 03:22 | 48.47314 | -121.06569 | 5788 ft | 113 kts | 153° |
| 2026-04-27 03:22 | 48.46652 | -121.05710 | 5894 ft | 138 kts | 126° |
| 2026-04-27 03:22 | 48.46281 | -121.04530 | 5651 ft | 123 kts | 98° |
| 2026-04-27 03:22 | 48.46202 | -121.03239 | 5194 ft | 138 kts | 100° |
| 2026-04-27 03:23 | 48.45990 | -121.01740 | 5183 ft | 150 kts | 109° |
| 2026-04-27 03:23 | 48.45676 | -121.00171 | 5045 ft | 165 kts | 104° |
| 2026-04-27 03:23 | 48.45432 | -120.98451 | 4862 ft | 170 kts | 105° |
| 2026-04-27 03:23 | 48.45076 | -120.96750 | 4676 ft | 170 kts | 112° |
| 2026-04-27 03:24 | 48.44659 | -120.95116 | 4554 ft | 163 kts | 112° |
| 2026-04-27 03:24 | 48.44116 | -120.93703 | 4428 ft | 152 kts | 131° |
| 2026-04-27 03:24 | 48.43402 | -120.92538 | 4196 ft | 150 kts | 137° |
| 2026-04-27 03:24 | 48.42851 | -120.91278 | 4011 ft | 149 kts | 113° |
| 2026-04-27 03:25 | 48.42685 | -120.89728 | 3676 ft | 154 kts | 85° |
| 2026-04-27 03:25 | 48.42793 | -120.88164 | 3392 ft | 151 kts | 105° |
| 2026-04-27 03:25 | 48.42118 | -120.86986 | 3072 ft | 151 kts | 147° |
| 2026-04-27 03:25 | 48.41186 | -120.86239 | 2728 ft | 152 kts | 156° |
| 2026-04-27 03:26 | 48.40275 | -120.85559 | 2682 ft | 138 kts | 152° |
| 2026-04-27 03:26 | 48.39540 | -120.84694 | 2625 ft | 138 kts | 139° |
| 2026-04-27 03:26 | 48.38889 | -120.83633 | 2587 ft | 138 kts | 127° |
| 2026-04-27 03:26 | 48.38435 | -120.82410 | 2644 ft | 133 kts | 117° |
| 2026-04-27 03:27 | 48.38152 | -120.81066 | 2573 ft | 136 kts | 102° |
| 2026-04-27 03:27 | 48.37914 | -120.79692 | 2570 ft | 134 kts | 107° |
| 2026-04-27 03:27 | 48.37656 | -120.78395 | 2711 ft | 126 kts | 110° |
| 2026-04-27 03:27 | 48.37350 | -120.77198 | 2869 ft | 121 kts | 115° |
| 2026-04-27 03:28 | 48.36875 | -120.76092 | 2905 ft | 129 kts | 123° |
| 2026-04-27 03:28 | 48.36408 | -120.74919 | 3010 ft | 131 kts | 121° |
| 2026-04-27 03:28 | 48.35851 | -120.73793 | 3015 ft | 139 kts | 128° |
| 2026-04-27 03:28 | 48.35299 | -120.72598 | 3071 ft | 138 kts | 127° |
| 2026-04-27 03:29 | 48.34712 | -120.71482 | 3126 ft | 140 kts | 131° |
| 2026-04-27 03:29 | 48.34053 | -120.70367 | 3128 ft | 142 kts | 136° |
| 2026-04-27 03:29 | 48.33379 | -120.69313 | 3175 ft | 140 kts | 136° |
| 2026-04-27 03:29 | 48.32652 | -120.68357 | 3248 ft | 138 kts | 144° |
| 2026-04-27 03:30 | 48.31895 | -120.67423 | 3186 ft | 144 kts | 142° |
| 2026-04-27 03:30 | 48.31084 | -120.66595 | 3170 ft | 138 kts | 149° |
| 2026-04-27 03:30 | 48.30249 | -120.65922 | 3151 ft | 138 kts | 154° |
| 2026-04-27 03:30 | 48.29403 | -120.65221 | 3224 ft | 141 kts | 148° |
| 2026-04-27 03:31 | 48.28542 | -120.64404 | 3200 ft | 149 kts | 147° |
| 2026-04-27 03:31 | 48.27654 | -120.63656 | 3147 ft | 142 kts | 155° |
| 2026-04-27 03:31 | 48.26772 | -120.63010 | 3126 ft | 142 kts | 156° |
| 2026-04-27 03:31 | 48.25862 | -120.62379 | 3108 ft | 146 kts | 160° |
| 2026-04-27 03:32 | 48.24985 | -120.61720 | 2994 ft | 137 kts | 154° |
| 2026-04-27 03:32 | 48.24146 | -120.60996 | 2943 ft | 142 kts | 152° |
| 2026-04-27 03:32 | 48.23237 | -120.60281 | 3000 ft | 152 kts | 150° |
| 2026-04-27 03:32 | 48.22372 | -120.59317 | 3010 ft | 154 kts | 144° |
| 2026-04-27 03:33 | 48.21535 | -120.58380 | 3060 ft | 150 kts | 138° |
| 2026-04-27 03:33 | 48.20787 | -120.57301 | 3119 ft | 145 kts | 141° |
| 2026-04-27 03:33 | 48.20117 | -120.56260 | 3089 ft | 139 kts | 135° |
| 2026-04-27 03:33 | 48.19492 | -120.55136 | 3064 ft | 144 kts | 123° |
| 2026-04-27 03:34 | 48.19021 | -120.53956 | 3018 ft | 139 kts | 129° |
| 2026-04-27 03:34 | 48.18241 | -120.53013 | 3104 ft | 147 kts | 152° |
| 2026-04-27 03:34 | 48.17318 | -120.52258 | 3169 ft | 151 kts | 157° |
| 2026-04-27 03:34 | 48.16373 | -120.51722 | 3283 ft | 145 kts | 161° |
| 2026-04-27 03:35 | 48.15388 | -120.51254 | 3296 ft | 148 kts | 159° |
| 2026-04-27 03:35 | 48.14444 | -120.50788 | 3296 ft | 140 kts | 160° |
| 2026-04-27 03:35 | 48.13510 | -120.50236 | 3285 ft | 147 kts | 163° |
| 2026-04-27 03:35 | 48.12568 | -120.49787 | 3295 ft | 135 kts | 163° |
| 2026-04-27 03:36 | 48.11639 | -120.49434 | 3277 ft | 142 kts | 165° |
| 2026-04-27 03:36 | 48.10714 | -120.48877 | 3271 ft | 145 kts | 159° |
| 2026-04-27 03:36 | 48.09817 | -120.48249 | 3310 ft | 137 kts | 153° |
| 2026-04-27 03:36 | 48.08967 | -120.47514 | 3240 ft | 141 kts | 150° |
| 2026-04-27 03:37 | 48.08144 | -120.46694 | 3206 ft | 143 kts | 146° |
| 2026-04-27 03:37 | 48.07433 | -120.45758 | 3281 ft | 138 kts | 135° |
| 2026-04-27 03:37 | 48.06850 | -120.44622 | 3363 ft | 134 kts | 121° |
| 2026-04-27 03:37 | 48.06389 | -120.43378 | 3339 ft | 141 kts | 116° |
| 2026-04-27 03:38 | 48.05946 | -120.42077 | 3392 ft | 143 kts | 114° |
| 2026-04-27 03:38 | 48.05492 | -120.40756 | 3368 ft | 146 kts | 122° |
| 2026-04-27 03:38 | 48.05043 | -120.39348 | 3235 ft | 149 kts | 116° |
| 2026-04-27 03:38 | 48.04626 | -120.37998 | 3169 ft | 142 kts | 108° |
| 2026-04-27 03:39 | 48.04369 | -120.36570 | 3092 ft | 147 kts | 101° |
| 2026-04-27 03:39 | 48.04105 | -120.35108 | 3030 ft | 140 kts | 114° |
| 2026-04-27 03:39 | 48.03627 | -120.33888 | 3251 ft | 132 kts | 120° |
| 2026-04-27 03:39 | 48.03241 | -120.32582 | 3280 ft | 142 kts | 110° |
| 2026-04-27 03:40 | 48.02953 | -120.31161 | 3347 ft | 144 kts | 112° |
| 2026-04-27 03:40 | 48.02449 | -120.29761 | 3232 ft | 159 kts | 120° |
| 2026-04-27 03:40 | 48.01939 | -120.28273 | 3175 ft | 164 kts | 117° |
| 2026-04-27 03:40 | 48.01390 | -120.26840 | 3251 ft | 158 kts | 124° |
| 2026-04-27 03:41 | 48.00788 | -120.25483 | 3265 ft | 156 kts | 129° |
| 2026-04-27 03:41 | 48.00091 | -120.24274 | 3289 ft | 156 kts | 129° |
| 2026-04-27 03:41 | 47.99417 | -120.22975 | 3125 ft | 162 kts | 131° |
| 2026-04-27 03:41 | 47.98668 | -120.21786 | 3156 ft | 152 kts | 135° |
| 2026-04-27 03:42 | 47.97995 | -120.20697 | 3157 ft | 131 kts | 133° |
| 2026-04-27 03:42 | 47.97194 | -120.19866 | 2999 ft | 150 kts | 164° |
| 2026-04-27 03:42 | 47.96143 | -120.19636 | 3025 ft | 152 kts | 174° |
| 2026-04-27 03:42 | 47.95105 | -120.19510 | 3004 ft | 146 kts | 181° |
| 2026-04-27 03:43 | 47.94105 | -120.19409 | 3034 ft | 144 kts | 173° |
| 2026-04-27 03:43 | 47.93141 | -120.19152 | 3167 ft | 140 kts | 170° |
| 2026-04-27 03:43 | 47.92220 | -120.19051 | 3322 ft | 135 kts | 191° |
| 2026-04-27 03:43 | 47.91255 | -120.19192 | 3222 ft | 144 kts | 182° |
| 2026-04-27 03:44 | 47.90241 | -120.19248 | 3124 ft | 149 kts | 185° |
| 2026-04-27 03:44 | 47.89217 | -120.19299 | 3157 ft | 145 kts | 183° |
| 2026-04-27 03:44 | 47.88209 | -120.19287 | 3133 ft | 140 kts | 182° |
| 2026-04-27 03:44 | 47.87223 | -120.19207 | 3024 ft | 142 kts | 179° |
| 2026-04-27 03:45 | 47.86267 | -120.19171 | 3038 ft | 137 kts | 181° |
| 2026-04-27 03:45 | 47.85302 | -120.19284 | 2934 ft | 142 kts | 186° |
| 2026-04-27 03:45 | 47.84308 | -120.19369 | 2985 ft | 146 kts | 181° |
| 2026-04-27 03:45 | 47.83288 | -120.19408 | 3096 ft | 146 kts | 186° |
| 2026-04-27 03:46 | 47.82292 | -120.19402 | 3251 ft | 148 kts | 172° |
| 2026-04-27 03:46 | 47.81274 | -120.19054 | 3252 ft | 157 kts | 166° |
| 2026-04-27 03:46 | 47.80252 | -120.18483 | 3281 ft | 155 kts | 157° |
| 2026-04-27 03:46 | 47.79220 | -120.18268 | 3216 ft | 154 kts | 179° |
| 2026-04-27 03:47 | 47.78146 | -120.18156 | 3205 ft | 153 kts | 179° |
| 2026-04-27 03:47 | 47.77084 | -120.18177 | 3248 ft | 153 kts | 182° |
| 2026-04-27 03:47 | 47.76041 | -120.18437 | 3144 ft | 152 kts | 205° |
| 2026-04-27 03:47 | 47.75026 | -120.18616 | 3183 ft | 146 kts | 178° |
| 2026-04-27 03:48 | 47.74006 | -120.18457 | 3173 ft | 149 kts | 174° |
| 2026-04-27 03:48 | 47.72977 | -120.18251 | 3238 ft | 148 kts | 181° |
| 2026-04-27 03:48 | 47.71970 | -120.18563 | 3281 ft | 151 kts | 194° |
| 2026-04-27 03:48 | 47.70960 | -120.18833 | 3461 ft | 144 kts | 190° |
| 2026-04-27 03:49 | 47.69951 | -120.19233 | 3378 ft | 155 kts | 200° |
| 2026-04-27 03:49 | 47.68908 | -120.19696 | 3328 ft | 156 kts | 197° |
| 2026-04-27 03:49 | 47.67858 | -120.19989 | 3368 ft | 152 kts | 193° |
| 2026-04-27 03:49 | 47.66833 | -120.20421 | 3313 ft | 154 kts | 200° |
| 2026-04-27 03:50 | 47.65822 | -120.20873 | 3376 ft | 150 kts | 198° |
| 2026-04-27 03:50 | 47.64822 | -120.21372 | 3390 ft | 152 kts | 199° |
| 2026-04-27 03:50 | 47.63815 | -120.21872 | 3343 ft | 155 kts | 200° |
| 2026-04-27 03:50 | 47.62793 | -120.22334 | 3367 ft | 154 kts | 198° |
| 2026-04-27 03:51 | 47.61755 | -120.22759 | 3286 ft | 152 kts | 195° |
| 2026-04-27 03:51 | 47.60800 | -120.23243 | 3233 ft | 146 kts | 199° |
| 2026-04-27 03:51 | 47.59825 | -120.23628 | 3263 ft | 145 kts | 199° |
| 2026-04-27 03:51 | 47.58858 | -120.24142 | 3214 ft | 151 kts | 201° |
| 2026-04-27 03:52 | 47.57899 | -120.24745 | 3196 ft | 150 kts | 207° |
| 2026-04-27 03:52 | 47.56961 | -120.25392 | 3220 ft | 148 kts | 205° |
| 2026-04-27 03:52 | 47.56033 | -120.26083 | 3165 ft | 150 kts | 209° |
| 2026-04-27 03:52 | 47.55114 | -120.26747 | 3202 ft | 145 kts | 207° |
| 2026-04-27 03:53 | 47.54179 | -120.27379 | 3110 ft | 150 kts | 204° |
| 2026-04-27 03:53 | 47.53227 | -120.28030 | 2996 ft | 152 kts | 205° |
| 2026-04-27 03:53 | 47.52277 | -120.28633 | 3033 ft | 148 kts | 201° |
| 2026-04-27 03:53 | 47.51324 | -120.29150 | 3043 ft | 146 kts | 201° |
| 2026-04-27 03:54 | 47.50397 | -120.29630 | 3067 ft | 140 kts | 198° |
| 2026-04-27 03:54 | 47.49460 | -120.30067 | 2962 ft | 143 kts | 195° |
| 2026-04-27 03:54 | 47.48491 | -120.30501 | 2864 ft | 147 kts | 197° |
| 2026-04-27 03:54 | 47.47571 | -120.30868 | 2811 ft | 130 kts | 190° |
| 2026-04-27 03:55 | 47.46685 | -120.31016 | 2818 ft | 132 kts | 185° |
| 2026-04-27 03:55 | 47.45757 | -120.31065 | 2873 ft | 134 kts | 182° |
| 2026-04-27 03:55 | 47.44880 | -120.30991 | 3133 ft | 119 kts | 174° |
| 2026-04-27 03:55 | 47.44082 | -120.30673 | 3270 ft | 127 kts | 163° |
| 2026-04-27 03:56 | 47.43317 | -120.30511 | 3362 ft | 93 kts | 180° |
| 2026-04-27 03:56 | 47.42608 | -120.30046 | 3443 ft | 133 kts | 140° |
| 2026-04-27 03:56 | 47.41844 | -120.29141 | 3592 ft | 147 kts | 141° |
| 2026-04-27 03:56 | 47.41119 | -120.28033 | 3610 ft | 150 kts | 133° |
| 2026-04-27 03:57 | 47.40476 | -120.26978 | 3541 ft | 137 kts | 131° |
| 2026-04-27 03:57 | 47.39836 | -120.25871 | 3606 ft | 143 kts | 132° |
| 2026-04-27 03:57 | 47.39153 | -120.24840 | 3774 ft | 140 kts | 139° |
| 2026-04-27 03:57 | 47.38383 | -120.23863 | 3769 ft | 149 kts | 144° |
| 2026-04-27 03:58 | 47.37590 | -120.22857 | 3810 ft | 151 kts | 139° |
| 2026-04-27 03:58 | 47.36787 | -120.21905 | 3886 ft | 144 kts | 144° |
| 2026-04-27 03:58 | 47.36035 | -120.20964 | 3865 ft | 135 kts | 141° |
| 2026-04-27 03:58 | 47.35377 | -120.20071 | 3806 ft | 125 kts | 141° |
| 2026-04-27 03:59 | 47.35101 | -120.18994 | 3791 ft | 114 kts | 84° |
| 2026-04-27 03:59 | 47.35199 | -120.17774 | 3645 ft | 120 kts | 80° |
| 2026-04-27 03:59 | 47.35607 | -120.16722 | 3324 ft | 128 kts | 39° |
| 2026-04-27 03:59 | 47.36350 | -120.15970 | 2751 ft | 127 kts | 7° |
| 2026-04-27 04:00 | 47.37026 | -120.16389 | 2355 ft | 111 kts | 309° |
| 2026-04-27 04:00 | 47.37542 | -120.17249 | 1985 ft | 106 kts | 315° |
| 2026-04-27 04:00 | 47.37953 | -120.17896 | 1800 ft | 78 kts | 312° |
| 2026-04-27 04:00 | 47.38325 | -120.18462 | 1584 ft | 81 kts | 318° |
| 2026-04-27 04:01 | 47.38734 | -120.19028 | 1439 ft | 78 kts | 317° |
| 2026-04-27 04:01 | 47.39116 | -120.19597 | 1309 ft | 76 kts | 317° |
| 2026-04-27 04:01 | 47.39449 | -120.20077 | 1241 ft | 54 kts | 321° |
| 2026-04-27 04:01 | 47.39678 | -120.20388 | 1232 ft | 32 kts | 315° |
| 2026-04-27 04:02 | 47.39833 | -120.20609 | 1227 ft | 28 kts | 314° |
| 2026-04-27 04:02 | 47.39967 | -120.20806 | 1223 ft | 26 kts | 314° |
| 2026-04-27 04:02 | 47.40062 | -120.20943 | 1220 ft | 17 kts | 315° |
| 2026-04-27 04:02 | 47.40143 | -120.21059 | 1220 ft | 16 kts | 314° |
| 2026-04-27 04:03 | 47.40215 | -120.21169 | 1218 ft | 12 kts | 315° |
| 2026-04-27 04:03 | 47.40257 | -120.21158 | 1217 ft | 8 kts | 45° |
| 2026-04-27 04:03 | 47.40332 | -120.21074 | 1215 ft | 15 kts | 347° |
| 2026-04-27 04:03 | 47.40361 | -120.21122 | 1214 ft | 7 kts | 311° |
| 2026-04-27 04:04 | 47.40409 | -120.21146 | 1213 ft | 8 kts | 35° |
| 2026-04-27 04:04 | 47.40447 | -120.21088 | 1213 ft | 7 kts | 116° |
| 2026-04-27 04:04 | 47.40418 | -120.21062 | 1214 ft | 4 kts | 236° |
| 2026-04-27 04:04 | 47.40409 | -120.21078 | 1214 ft | 0 kts | 225° |
| 2026-04-27 04:05 | 47.40409 | -120.21079 | 1214 ft | 0 kts | 225° |